Time;durP1;ratioP1;P1;durP2;ratioP2;P2;SDS_P1;SDS_P2;PMS_P1;PMS_P2;Temp;Humidity;BMP_temperature;BMP_pressure;BME280_temperature;BME280_humidity;BME280_pressure;Samples;Min_cycle;Max_cycle;Signal;HPM_P1;HPM_P2
2021/11/05 00:01:49;;;;;;;1030.03;951.05;;;;;;;21.90;54.41;101818.81;5057785;28;20032;-42
2021/11/05 00:04:16;;;;;;;1064.82;983.40;;;;;;;21.92;54.12;101816.84;5057747;28;20174;-43
2021/11/05 00:06:42;;;;;;;1066.00;985.80;;;;;;;21.92;54.18;101815.03;5042944;28;20079;-42
2021/11/05 00:09:08;;;;;;;1072.95;991.65;;;;;;;21.93;54.18;101822.06;5043415;28;20151;-43
2021/11/05 00:11:35;;;;;;;1071.13;988.90;;;;;;;21.91;54.16;101816.00;5037183;28;20108;-43
2021/11/05 00:14:01;;;;;;;1054.43;976.22;;;;;;;21.86;54.19;101796.03;5048603;28;20067;-43
2021/11/05 00:16:27;;;;;;;1069.10;989.42;;;;;;;21.93;54.12;101805.16;5045088;28;20084;-43
2021/11/05 00:18:53;;;;;;;1053.55;975.08;;;;;;;21.94;53.74;101805.03;5037475;28;20033;-43
2021/11/05 00:21:20;;;;;;;1051.07;972.85;;;;;;;21.93;53.80;101808.69;5037642;28;20025;-43
2021/11/05 00:23:46;;;;;;;1060.00;979.60;;;;;;;21.94;54.30;101810.38;5056730;28;20033;-43
2021/11/05 00:26:12;;;;;;;1063.40;983.33;;;;;;;21.93;54.38;101806.00;5056099;28;20451;-42
2021/11/05 00:28:38;;;;;;;1072.65;991.50;;;;;;;21.92;54.12;101798.13;5056930;28;20040;-42
2021/11/05 00:31:05;;;;;;;1045.20;965.88;;;;;;;21.95;54.06;101789.81;5057036;28;20025;-42
2021/11/05 00:33:32;;;;;;;1063.55;983.92;;;;;;;21.94;54.34;101789.00;5037013;28;20031;-42
2021/11/05 00:35:58;;;;;;;1062.75;982.72;;;;;;;21.94;54.27;101801.50;5037116;28;20032;-44
2021/11/05 00:38:24;;;;;;;1035.45;957.78;;;;;;;21.92;54.32;101801.66;5037390;28;20053;-43
2021/11/05 00:40:50;;;;;;;1059.80;979.78;;;;;;;21.93;53.91;101797.16;5056889;28;20081;-42
2021/11/05 00:43:17;;;;;;;1056.10;977.20;;;;;;;21.92;54.12;101799.00;5041139;28;20120;-42
2021/11/05 00:45:43;;;;;;;1063.95;982.63;;;;;;;21.95;53.88;101785.31;5043335;28;20025;-42
2021/11/05 00:48:09;;;;;;;1043.95;965.53;;;;;;;21.95;53.85;101784.47;5045418;28;20114;-42
2021/11/05 00:50:35;;;;;;;1057.65;977.75;;;;;;;21.97;53.85;101801.22;5036942;28;20030;-42
2021/11/05 00:53:02;;;;;;;1059.13;978.53;;;;;;;21.95;53.90;101796.00;5063267;28;20513;-42
2021/11/05 00:55:28;;;;;;;1073.10;991.58;;;;;;;21.93;53.68;101806.00;5054558;28;20028;-42
2021/11/05 00:57:55;;;;;;;1064.97;984.63;;;;;;;21.93;53.89;101806.00;5036547;28;20083;-41
2021/11/05 01:00:21;;;;;;;1062.32;983.40;;;;;;;21.91;53.83;101801.78;5036540;28;20413;-43
2021/11/05 01:02:47;;;;;;;1069.25;988.00;;;;;;;21.92;53.61;101806.13;5044320;28;20021;-42
2021/11/05 01:05:14;;;;;;;1073.07;990.60;;;;;;;21.89;53.43;101804.59;5043757;28;20025;-42
2021/11/05 01:07:41;;;;;;;1064.82;984.53;;;;;;;21.89;53.46;101804.59;5036192;28;20036;-43
2021/11/05 01:10:07;;;;;;;1071.45;988.58;;;;;;;21.88;53.47;101796.72;5036809;28;20064;-43
2021/11/05 01:12:34;;;;;;;1045.85;968.28;;;;;;;21.88;53.63;101794.88;5036935;28;20362;-43
2021/11/05 01:15:00;;;;;;;1067.18;987.63;;;;;;;21.87;53.69;101790.53;5036012;28;20025;-41
2021/11/05 01:17:26;;;;;;;1065.85;986.63;;;;;;;21.88;53.44;101791.38;5045432;28;20033;-42
2021/11/05 01:19:53;;;;;;;1057.30;978.53;;;;;;;21.87;53.34;101800.38;5056347;28;20094;-42
2021/11/05 01:22:19;;;;;;;1039.32;961.25;;;;;;;21.84;53.27;101791.63;5043586;28;20378;-40
2021/11/05 01:24:46;;;;;;;1050.47;972.10;;;;;;;21.83;53.39;101789.97;5036180;28;20030;-42
2021/11/05 01:27:12;;;;;;;1058.28;979.85;;;;;;;21.73;53.27;101786.44;5037632;28;20025;-42
2021/11/05 01:29:41;;;;;;;1063.20;984.28;;;;;;;21.80;53.11;101798.25;5042616;28;20339;-42
2021/11/05 01:32:08;;;;;;;1039.57;962.85;;;;;;;21.78;53.42;101792.22;5041372;28;20455;-43
2021/11/05 01:34:34;;;;;;;1059.45;980.03;;;;;;;21.76;53.15;101785.31;5043486;28;20025;-43
2021/11/05 01:37:00;;;;;;;1050.93;972.90;;;;;;;21.78;53.26;101788.69;5046822;28;20099;-42
2021/11/05 01:39:27;;;;;;;1051.80;972.03;;;;;;;21.75;53.14;101789.81;5047317;28;20079;-42
2021/11/05 01:41:54;;;;;;;1053.65;973.53;;;;;;;21.75;52.96;101788.97;5047368;28;20538;-42
2021/11/05 01:44:26;;;;;;;1076.65;994.22;;;;;;;21.72;53.10;101787.41;5041997;28;20032;-43
2021/11/05 01:46:52;;;;;;;1035.70;958.72;;;;;;;21.73;53.05;101799.81;5035127;28;20041;-42
2021/11/05 01:49:18;;;;;;;1045.50;967.72;;;;;;;21.71;53.24;101799.09;5043276;28;20029;-43
2021/11/05 01:51:45;;;;;;;1060.78;980.42;;;;;;;21.69;53.38;101793.06;5044229;28;20390;-42
2021/11/05 01:54:12;;;;;;;1058.43;979.03;;;;;;;21.70;53.04;101801.91;5039792;28;20028;-43
2021/11/05 01:56:39;;;;;;;1051.78;973.53;;;;;;;21.68;53.30;101814.56;5050915;28;20037;-43
2021/11/05 01:59:05;;;;;;;1027.78;950.92;;;;;;;21.67;53.24;101819.06;5039261;28;20044;-42
2021/11/05 02:01:31;;;;;;;1056.35;975.88;;;;;;;21.64;53.37;101812.16;5046526;28;20031;-42
2021/11/05 02:03:57;;;;;;;1059.75;980.83;;;;;;;21.67;53.04;101802.19;5046089;28;20037;-42
2021/11/05 02:06:24;;;;;;;1082.80;997.45;;;;;;;21.65;53.06;101802.31;5040245;28;20112;-43
2021/11/05 02:08:51;;;;;;;1057.97;977.00;;;;;;;21.63;52.96;101807.78;5044279;28;20040;-42
2021/11/05 02:11:19;;;;;;;1076.50;993.60;;;;;;;21.61;52.73;101804.41;5037535;28;20033;-42
2021/11/05 02:13:46;;;;;;;1037.25;959.15;;;;;;;21.57;52.87;101795.00;5041021;28;20025;-42
2021/11/05 02:16:12;;;;;;;1066.22;986.05;;;;;;;21.52;52.87;101789.22;5037734;28;20108;-42
2021/11/05 02:18:43;;;;;;;1068.68;987.80;;;;;;;21.53;52.94;101800.75;5057699;28;20025;-43
2021/11/05 02:21:18;;;;;;;1056.35;977.08;;;;;;;21.54;53.23;101797.09;5035358;28;20021;-42
2021/11/05 02:23:45;;;;;;;1053.10;974.13;;;;;;;21.53;52.96;101800.75;5036879;28;20112;-42
2021/11/05 02:26:11;;;;;;;995.33;923.35;;;;;;;21.51;53.17;101803.53;5037658;28;20021;-42
2021/11/05 02:28:38;;;;;;;1072.55;990.70;;;;;;;21.53;53.01;101808.75;5046475;28;20555;-43
2021/11/05 02:31:04;;;;;;;1041.20;962.33;;;;;;;21.53;52.67;101801.59;5041890;28;20025;-42
2021/11/05 02:33:31;;;;;;;1066.38;987.10;;;;;;;21.54;52.76;101805.13;5040429;28;20056;-42
2021/11/05 02:35:57;;;;;;;1066.03;986.00;;;;;;;21.52;52.36;101812.44;5050880;28;20076;-43
2021/11/05 02:38:24;;;;;;;1026.05;951.97;;;;;;;21.51;52.26;101805.38;5040405;28;20048;-42
2021/11/05 02:40:51;;;;;;;1060.43;980.67;;;;;;;21.47;52.40;101802.13;5041878;28;20399;-41
2021/11/05 02:43:18;;;;;;;1010.78;935.65;;;;;;;21.45;52.60;101804.06;5036205;28;20119;-42
2021/11/05 02:45:54;;;;;;;1050.20;972.13;;;;;;;21.45;52.58;101804.06;5034791;28;20036;-44
2021/11/05 02:48:20;;;;;;;1032.25;957.25;;;;;;;21.43;52.63;101798.03;5041868;28;20381;-42
2021/11/05 02:50:47;;;;;;;1043.15;963.60;;;;;;;21.46;52.34;101797.75;5045114;28;20021;-43
2021/11/05 02:53:13;;;;;;;1036.32;960.30;;;;;;;21.47;52.60;101801.31;5050032;28;20473;-42
2021/11/05 02:55:39;;;;;;;995.60;921.25;;;;;;;21.39;52.86;101791.25;5049617;28;20515;-43
2021/11/05 02:58:05;;;;;;;1059.03;978.13;;;;;;;21.42;52.55;101799.00;5046180;28;20420;-42
2021/11/05 03:00:32;;;;;;;1042.00;963.83;;;;;;;21.47;52.54;101798.63;5041738;28;20033;-43
2021/11/05 03:02:58;;;;;;;1052.93;975.20;;;;;;;21.46;52.79;101800.44;5035848;28;20521;-42
2021/11/05 03:05:24;;;;;;;1054.90;976.65;;;;;;;21.48;52.69;101806.50;5033736;28;20060;-42
2021/11/05 03:07:52;;;;;;;1058.40;980.13;;;;;;;21.47;52.90;101798.63;5034590;28;20108;-42
2021/11/05 03:10:18;;;;;;;1052.75;975.13;;;;;;;21.49;52.52;101800.16;5045331;28;20037;-43
2021/11/05 03:12:45;;;;;;;1056.85;978.13;;;;;;;21.48;52.53;101803.84;5041588;28;20120;-41
2021/11/05 03:15:11;;;;;;;1036.38;959.92;;;;;;;21.48;52.30;101801.16;5051315;28;20045;-43
2021/11/05 03:17:38;;;;;;;1016.95;943.40;;;;;;;21.49;52.23;101805.50;5047611;28;20341;-42
2021/11/05 03:20:06;;;;;;;1044.78;968.83;;;;;;;21.48;52.34;101803.84;5037950;28;20019;-43
2021/11/05 03:22:32;;;;;;;1031.68;957.08;;;;;;;21.48;52.49;101809.19;5039168;28;20087;-42
2021/11/05 03:24:58;;;;;;;1042.65;966.80;;;;;;;21.49;52.76;101802.84;5045908;28;20040;-43
2021/11/05 03:27:24;;;;;;;1040.13;964.78;;;;;;;21.51;52.43;101800.03;5048279;28;20336;-43
2021/11/05 03:29:51;;;;;;;1028.68;954.05;;;;;;;21.49;52.61;101802.84;5047205;28;20355;-42
2021/11/05 03:32:17;;;;;;;1047.75;972.45;;;;;;;21.50;52.36;101809.88;5039518;28;20499;-43
2021/11/05 03:34:43;;;;;;;1039.72;964.45;;;;;;;21.52;52.64;101812.44;5038918;28;20033;-42
2021/11/05 03:37:10;;;;;;;1040.35;964.22;;;;;;;21.50;52.39;101815.22;5039154;28;20098;-41
2021/11/05 03:39:36;;;;;;;1044.43;967.58;;;;;;;21.52;52.48;101817.78;5051182;28;20028;-42
2021/11/05 03:42:03;;;;;;;1032.88;957.25;;;;;;;21.48;52.38;101811.84;5054138;28;20102;-41
2021/11/05 03:44:29;;;;;;;1039.43;963.35;;;;;;;21.50;52.65;101817.91;5063604;28;20028;-41
2021/11/05 03:46:55;;;;;;;1058.43;980.28;;;;;;;21.50;52.42;101812.56;5048530;28;20047;-42
2021/11/05 03:49:22;;;;;;;1044.82;967.50;;;;;;;21.49;52.84;101810.84;5042659;28;20122;-41
2021/11/05 03:51:48;;;;;;;1034.13;959.65;;;;;;;21.43;52.54;101795.34;5035930;28;20034;-41
2021/11/05 03:54:15;;;;;;;1023.53;948.72;;;;;;;21.48;52.47;101795.81;5047329;28;20021;-43
2021/11/05 03:56:41;;;;;;;1031.28;957.00;;;;;;;21.51;52.61;101803.53;5051991;28;20025;-42
2021/11/05 03:59:08;;;;;;;1029.18;954.70;;;;;;;21.51;52.32;101803.53;5045917;28;20067;-42
2021/11/05 04:01:34;;;;;;;1030.07;954.22;;;;;;;21.52;52.22;101809.75;5053007;28;20083;-41
2021/11/05 04:04:00;;;;;;;1048.88;971.38;;;;;;;21.50;52.02;101809.88;5036255;28;20066;-41
2021/11/05 04:06:27;;;;;;;1044.18;967.13;;;;;;;21.48;52.38;101801.16;5050830;28;20136;-43
2021/11/05 04:08:53;;;;;;;1033.93;957.20;;;;;;;21.47;52.12;101804.81;5055635;28;20029;-42
2021/11/05 04:11:19;;;;;;;1029.85;954.30;;;;;;;21.38;51.98;101787.72;5039072;28;20040;-39
2021/11/05 04:13:46;;;;;;;1041.50;965.00;;;;;;;21.48;52.38;101809.19;5038926;28;20497;-39
2021/11/05 04:16:13;;;;;;;1039.75;963.60;;;;;;;21.48;52.19;101811.84;5037531;28;20022;-40
2021/11/05 04:18:39;;;;;;;1034.13;957.33;;;;;;;21.47;52.44;101823.53;5037663;28;20033;-41
2021/11/05 04:21:05;;;;;;;1054.03;975.22;;;;;;;21.45;52.36;101817.44;5052360;28;20034;-39
2021/11/05 04:23:32;;;;;;;1054.85;977.22;;;;;;;21.47;52.50;101817.34;5036738;28;20057;-42
2021/11/05 04:25:58;;;;;;;1038.15;962.63;;;;;;;21.45;52.20;101823.66;5057807;28;20033;-41
2021/11/05 04:28:25;;;;;;;1044.47;968.35;;;;;;;21.44;52.60;101821.06;5046108;28;20029;-40
2021/11/05 04:30:51;;;;;;;1042.03;965.30;;;;;;;21.43;52.08;101822.06;5044572;28;20084;-40
2021/11/05 04:33:17;;;;;;;1050.03;972.65;;;;;;;21.40;52.15;101815.16;5045839;28;20027;-40
2021/11/05 04:35:44;;;;;;;1042.30;965.45;;;;;;;21.40;52.48;101811.66;5052361;28;20078;-39
2021/11/05 04:38:10;;;;;;;1041.90;966.20;;;;;;;21.39;52.27;101817.97;5049794;28;20434;-40
2021/11/05 04:40:37;;;;;;;1034.95;958.78;;;;;;;21.38;52.07;101826.97;5040388;28;20425;-41
2021/11/05 04:43:03;;;;;;;1030.88;956.15;;;;;;;21.37;52.30;101817.25;5043683;28;20363;-40
2021/11/05 04:45:29;;;;;;;1040.63;965.75;;;;;;;21.36;52.15;101819.09;5035990;28;20410;-41
2021/11/05 04:47:55;;;;;;;1021.97;949.10;;;;;;;21.35;52.00;101824.56;5038470;28;20370;-41
2021/11/05 04:50:22;;;;;;;1033.60;958.08;;;;;;;21.35;52.49;101821.91;5043662;28;20029;-39
2021/11/05 04:52:48;;;;;;;1035.40;960.03;;;;;;;21.32;52.44;101820.34;5042731;28;20123;-40
2021/11/05 04:55:16;;;;;;;1024.88;951.10;;;;;;;21.34;52.10;101825.56;5052400;28;20038;-42
2021/11/05 04:57:43;;;;;;;1008.00;936.53;;;;;;;21.32;52.20;101824.84;5041657;28;20029;-41
2021/11/05 05:00:10;;;;;;;1039.80;965.78;;;;;;;21.32;52.36;101820.34;5038947;28;20033;-42
2021/11/05 05:02:37;;;;;;;1033.72;958.85;;;;;;;21.31;52.31;101825.84;5039578;28;20035;-40
2021/11/05 05:05:04;;;;;;;1037.43;963.03;;;;;;;21.30;51.90;101822.31;5041461;28;20079;-42
2021/11/05 05:07:30;;;;;;;1025.60;951.88;;;;;;;21.30;52.05;101833.00;5055861;28;20033;-41
2021/11/05 05:09:56;;;;;;;1011.53;939.55;;;;;;;21.27;51.98;101836.78;5044336;28;20076;-42
2021/11/05 05:12:23;;;;;;;1024.70;950.63;;;;;;;21.26;52.05;101843.13;5036031;28;20025;-40
2021/11/05 05:14:49;;;;;;;1037.97;963.05;;;;;;;21.23;52.04;101843.38;5035957;28;20033;-42
2021/11/05 05:17:15;;;;;;;1031.80;956.40;;;;;;;21.21;52.10;101832.00;5050857;28;20037;-41
2021/11/05 05:19:41;;;;;;;1037.75;962.38;;;;;;;21.23;51.92;101845.19;5037857;28;20034;-42
2021/11/05 05:22:08;;;;;;;1036.35;959.88;;;;;;;21.21;52.07;101856.03;5043282;28;20032;-40
2021/11/05 05:24:36;;;;;;;1042.30;967.30;;;;;;;21.20;51.96;101851.66;5038772;28;20119;-40
2021/11/05 05:27:02;;;;;;;1017.08;944.20;;;;;;;21.19;52.16;101855.28;5035572;28;20499;-41
2021/11/05 05:29:28;;;;;;;1024.53;950.60;;;;;;;21.14;51.94;101860.22;5044015;28;20045;-41
2021/11/05 05:31:54;;;;;;;1002.95;931.35;;;;;;;21.13;51.90;101858.50;5037521;28;20490;-41
2021/11/05 05:34:21;;;;;;;1016.38;942.83;;;;;;;21.10;52.30;101868.63;5035230;28;20039;-40
2021/11/05 05:36:47;;;;;;;1038.80;963.20;;;;;;;21.08;51.97;101863.41;5038171;28;20351;-39
2021/11/05 05:39:14;;;;;;;1042.45;964.30;;;;;;;21.08;51.99;101866.06;5040341;28;20386;-38
2021/11/05 05:41:40;;;;;;;1006.40;931.60;;;;;;;21.07;51.70;101864.41;5043371;28;20100;-41
2021/11/05 05:44:06;;;;;;;1035.07;958.53;;;;;;;21.06;51.71;101865.38;5046830;28;20035;-42
2021/11/05 05:46:33;;;;;;;1030.63;956.00;;;;;;;21.01;51.65;101857.75;5043928;28;20017;-42
2021/11/05 05:48:59;;;;;;;1028.57;954.67;;;;;;;20.99;51.55;101854.38;5036260;28;20033;-39
2021/11/05 05:51:30;;;;;;;1012.47;939.55;;;;;;;21.03;51.68;101846.94;5035393;28;20021;-41
2021/11/05 05:53:57;;;;;;;1025.75;953.13;;;;;;;20.98;51.45;101855.34;5042893;28;20452;-42
2021/11/05 05:56:23;;;;;;;1028.30;954.03;;;;;;;20.96;51.77;101851.94;5041646;28;20381;-42
2021/11/05 05:58:49;;;;;;;1030.35;956.17;;;;;;;20.96;51.93;101854.63;5053972;28;20430;-41
2021/11/05 06:01:15;;;;;;;1033.60;958.47;;;;;;;20.93;51.67;101862.03;5042161;28;20524;-38
2021/11/05 06:03:42;;;;;;;1003.40;931.72;;;;;;;20.92;52.01;101866.56;5042357;28;20032;-41
2021/11/05 06:06:08;;;;;;;1023.40;950.17;;;;;;;20.88;51.87;101854.44;5035345;28;20041;-40
2021/11/05 06:08:34;;;;;;;1036.07;962.00;;;;;;;20.88;51.96;101854.44;5034706;28;20045;-41
2021/11/05 06:11:00;;;;;;;1002.70;930.63;;;;;;;20.87;51.87;101847.41;5050259;28;20112;-41
2021/11/05 06:13:27;;;;;;;1036.32;962.00;;;;;;;20.87;51.34;101842.94;5040683;28;20112;-41
2021/11/05 06:15:54;;;;;;;1020.72;947.47;;;;;;;20.86;51.20;101846.56;5038193;28;20048;-41
2021/11/05 06:18:20;;;;;;;1021.40;949.33;;;;;;;20.77;51.08;101830.47;5034314;28;20021;-40
2021/11/05 06:20:46;;;;;;;1008.47;937.35;;;;;;;20.81;51.24;101847.94;5033850;28;20026;-38
2021/11/05 06:23:13;;;;;;;1018.55;946.45;;;;;;;20.81;51.61;101856.78;5043405;28;20048;-41
2021/11/05 06:25:40;;;;;;;1017.90;944.53;;;;;;;20.78;51.86;101849.03;5043968;28;20029;-38
2021/11/05 06:28:06;;;;;;;999.42;928.55;;;;;;;20.75;51.85;101851.13;5038119;28;20466;-40
2021/11/05 06:30:32;;;;;;;1001.63;930.70;;;;;;;20.79;51.73;101863.25;5046845;28;20418;-39
2021/11/05 06:33:00;;;;;;;1013.33;942.03;;;;;;;20.73;51.44;101863.75;5034336;28;20117;-42
2021/11/05 06:35:28;;;;;;;1020.65;948.38;;;;;;;20.72;51.26;101859.41;5048296;28;20034;-41
2021/11/05 06:37:55;;;;;;;1022.83;949.33;;;;;;;20.68;51.29;101867.69;5041657;28;20406;-41
2021/11/05 06:40:21;;;;;;;996.83;926.47;;;;;;;20.68;51.37;101870.34;5035037;28;20026;-40
2021/11/05 06:42:47;;;;;;;1002.65;932.65;;;;;;;20.66;51.54;101872.31;5051850;28;20513;-42
2021/11/05 06:45:14;;;;;;;1021.20;948.75;;;;;;;20.66;51.24;101868.75;5038218;28;20060;-40
2021/11/05 06:47:40;;;;;;;1010.38;939.85;;;;;;;20.65;51.12;101869.75;5054202;28;20017;-41
2021/11/05 06:50:08;;;;;;;1009.13;937.83;;;;;;;20.60;51.51;101854.09;5052803;28;20092;-39
2021/11/05 06:52:34;;;;;;;973.42;905.47;;;;;;;20.58;51.56;101863.22;5047023;28;20033;-40
2021/11/05 06:55:02;;;;;;;986.90;918.55;;;;;;;20.57;51.66;101856.16;5042568;28;20039;-40
2021/11/05 06:57:28;;;;;;;981.45;912.95;;;;;;;20.56;51.48;101865.16;5036363;28;20029;-40
2021/11/05 06:59:58;;;;;;;990.95;921.72;;;;;;;20.55;51.32;101866.13;5034917;28;20474;-41
2021/11/05 07:02:24;;;;;;;989.50;921.80;;;;;;;20.53;51.62;101866.25;5041073;28;20115;-40
2021/11/05 07:04:50;;;;;;;989.42;920.45;;;;;;;20.52;51.48;101861.91;5039869;28;20039;-41
2021/11/05 07:07:17;;;;;;;1013.33;941.90;;;;;;;20.49;51.58;101857.66;5050976;28;20032;-40
2021/11/05 07:09:43;;;;;;;1002.35;932.63;;;;;;;20.48;51.51;101861.31;5040809;28;20060;-40
2021/11/05 07:12:09;;;;;;;1008.78;938.95;;;;;;;20.48;51.50;101858.66;5035512;28;20068;-38
2021/11/05 07:14:36;;;;;;;993.15;923.45;;;;;;;20.45;51.38;101858.91;5044610;28;20040;-40
2021/11/05 07:17:02;;;;;;;1014.72;944.60;;;;;;;20.45;51.00;101848.25;5039640;28;20075;-41
2021/11/05 07:19:29;;;;;;;990.85;922.45;;;;;;;20.46;51.11;101859.75;5034661;28;20022;-40
2021/11/05 07:22:04;;;;;;;958.90;891.55;;;;;;;20.39;51.71;101854.06;5041121;28;20095;-40
2021/11/05 07:24:32;;;;;;;985.33;917.80;;;;;;;20.35;51.21;101844.66;5034386;28;20029;-41
2021/11/05 07:26:59;;;;;;;973.65;907.45;;;;;;;20.35;51.64;101847.31;5034990;28;20084;-40
2021/11/05 07:29:26;;;;;;;986.92;918.72;;;;;;;20.38;51.15;101843.56;5034876;28;20029;-40
2021/11/05 07:31:58;;;;;;;980.58;914.00;;;;;;;20.33;51.33;101847.44;5039429;28;20033;-42
2021/11/05 07:34:29;;;;;;;986.58;919.20;;;;;;;20.15;51.07;101819.63;5041481;28;20360;-40
2021/11/05 07:37:02;;;;;;;981.03;914.30;;;;;;;20.33;50.98;101850.09;5050443;28;20095;-39
2021/11/05 07:39:29;;;;;;;976.45;910.42;;;;;;;20.31;51.07;101851.22;5045401;28;20570;-40
2021/11/05 07:41:55;;;;;;;961.83;897.47;;;;;;;20.32;50.91;101861.75;5038684;28;20029;-41
2021/11/05 07:44:22;;;;;;;975.25;907.25;;;;;;;20.29;51.50;101858.50;5043988;28;20103;-41
2021/11/05 07:46:48;;;;;;;992.63;924.33;;;;;;;20.30;50.98;101865.53;5049861;28;20425;-41
2021/11/05 07:49:15;;;;;;;995.20;926.03;;;;;;;20.24;51.16;101858.88;5041305;28;20461;-37
2021/11/05 07:51:42;;;;;;;982.20;915.17;;;;;;;20.22;51.52;101857.31;5065434;28;20072;-42
2021/11/05 07:54:08;;;;;;;975.03;908.25;;;;;;;20.21;51.37;101867.13;5034900;28;20053;-39
2021/11/05 07:56:35;;;;;;;992.97;925.22;;;;;;;20.21;51.34;101866.28;5036296;28;20529;-40
2021/11/05 07:59:02;;;;;;;987.10;919.25;;;;;;;20.17;51.26;101859.53;5033882;28;20030;-41
2021/11/05 08:01:28;;;;;;;995.75;927.65;;;;;;;20.17;51.18;101867.53;5033313;28;20033;-41
2021/11/05 08:03:55;;;;;;;975.53;907.95;;;;;;;20.14;51.13;101864.09;5039846;28;20032;-41
2021/11/05 08:06:21;;;;;;;980.35;913.97;;;;;;;20.15;51.37;101864.97;5050090;28;20029;-38
2021/11/05 08:08:47;;;;;;;998.92;930.42;;;;;;;20.16;51.19;101857.81;5037463;28;20087;-40
2021/11/05 08:11:13;;;;;;;986.70;917.45;;;;;;;20.13;51.32;101850.94;5041436;28;20079;-41
2021/11/05 08:13:40;;;;;;;988.72;921.08;;;;;;;20.12;51.16;101847.41;5043520;28;20036;-41
2021/11/05 08:16:07;;;;;;;999.65;930.70;;;;;;;20.14;51.13;101855.28;5056141;28;20029;-42
2021/11/05 08:18:33;;;;;;;985.33;917.28;;;;;;;20.06;51.50;101861.25;5049188;28;20103;-42
2021/11/05 08:21:00;;;;;;;963.13;897.10;;;;;;;20.09;51.09;101862.81;5043670;28;20017;-41
2021/11/05 08:23:26;;;;;;;990.15;922.58;;;;;;;20.09;51.09;101853.00;5040825;28;20056;-38
2021/11/05 08:25:52;;;;;;;974.03;908.78;;;;;;;20.03;50.98;101853.50;5050515;28;20467;-40
2021/11/05 08:28:19;;;;;;;979.35;912.78;;;;;;;20.04;51.20;101857.88;5036800;28;20037;-39
2021/11/05 08:30:46;;;;;;;981.25;914.17;;;;;;;20.05;50.82;101858.69;5046037;28;20040;-41
2021/11/05 08:33:12;;;;;;;993.15;925.67;;;;;;;20.04;51.17;101855.19;5049918;28;20089;-40
2021/11/05 08:35:38;;;;;;;990.08;923.35;;;;;;;20.03;50.96;101869.50;5038855;28;20052;-41
2021/11/05 08:38:08;;;;;;;994.13;926.45;;;;;;;20.02;51.07;101873.16;5049962;28;20111;-41
2021/11/05 08:40:35;;;;;;;975.83;909.47;;;;;;;20.00;51.47;101867.06;5038940;28;20136;-41
2021/11/05 08:43:01;;;;;;;976.67;910.00;;;;;;;20.02;51.13;101861.63;5036895;28;20355;-37
2021/11/05 08:45:27;;;;;;;987.10;919.67;;;;;;;19.96;51.17;101856.78;5051411;28;20137;-40
2021/11/05 08:47:54;;;;;;;978.53;912.50;;;;;;;19.92;51.26;101845.53;5044484;28;20075;-39
2021/11/05 08:50:23;;;;;;;984.47;916.90;;;;;;;19.97;50.94;101859.34;5039297;28;20071;-41
2021/11/05 08:52:50;;;;;;;980.15;914.38;;;;;;;19.89;51.10;101843.94;5040104;28;20026;-41
2021/11/05 08:55:16;;;;;;;998.78;930.33;;;;;;;19.92;51.22;101849.03;5036999;28;20036;-40
2021/11/05 08:57:43;;;;;;;976.55;910.90;;;;;;;19.91;50.93;101851.81;5045392;28;20035;-41
2021/11/05 09:00:19;;;;;;;995.70;927.25;;;;;;;19.87;51.47;101850.41;5040430;28;20018;-42
2021/11/05 09:02:47;;;;;;;959.78;894.60;;;;;;;19.88;51.41;101847.59;5039079;28;20026;-41
2021/11/05 09:05:14;;;;;;;978.15;912.53;;;;;;;19.89;51.14;101840.44;5048131;28;20094;-40
2021/11/05 09:07:40;;;;;;;979.45;913.08;;;;;;;19.86;51.06;101824.69;5049295;28;20029;-38
2021/11/05 09:10:07;;;;;;;983.28;917.35;;;;;;;19.87;51.09;101840.56;5035626;28;20562;-42
2021/11/05 09:12:33;;;;;;;987.65;921.45;;;;;;;19.85;51.27;101826.53;5044571;28;20166;-41
2021/11/05 09:15:00;;;;;;;977.35;911.33;;;;;;;19.87;51.01;101823.75;5049819;28;20048;-41
2021/11/05 09:17:26;;;;;;;975.15;909.28;;;;;;;19.52;51.01;101763.47;5035471;28;20018;-42
2021/11/05 09:19:52;;;;;;;969.72;904.50;;;;;;;19.82;50.99;101817.94;5036202;28;20112;-41
2021/11/05 09:22:19;;;;;;;976.65;911.40;;;;;;;19.82;50.89;101823.25;5047614;28;20078;-42
2021/11/05 09:24:45;;;;;;;969.03;904.15;;;;;;;19.78;51.25;101816.50;5056118;28;20358;-40
2021/11/05 09:27:11;;;;;;;993.35;925.95;;;;;;;19.74;50.87;101803.41;5041597;28;20108;-41
2021/11/05 09:29:38;;;;;;;981.13;914.95;;;;;;;19.78;51.28;101813.84;5052412;28;20481;-41
2021/11/05 09:32:04;;;;;;;994.80;928.15;;;;;;;19.78;50.87;101822.66;5050853;28;20033;-38
2021/11/05 09:34:34;;;;;;;996.20;928.80;;;;;;;19.78;51.27;101811.16;5037881;28;20033;-38
2021/11/05 09:37:01;;;;;;;971.42;905.70;;;;;;;19.78;51.17;101796.00;5037972;28;20463;-41
2021/11/05 09:39:28;;;;;;;980.10;915.17;;;;;;;19.80;51.01;101799.41;5038371;28;20088;-41
2021/11/05 09:41:54;;;;;;;991.50;925.80;;;;;;;19.77;51.12;101801.47;5047501;28;20422;-40
2021/11/05 09:44:20;;;;;;;967.20;903.00;;;;;;;19.74;50.94;101807.91;5042634;28;20467;-41
2021/11/05 09:46:47;;;;;;;966.42;901.97;;;;;;;19.69;51.06;101786.91;5034941;28;20033;-41
2021/11/05 09:49:14;;;;;;;984.55;917.30;;;;;;;19.70;50.96;101791.28;5036121;28;20029;-41
2021/11/05 09:51:40;;;;;;;974.05;907.58;;;;;;;19.70;51.08;101793.97;5035917;28;20032;-39
2021/11/05 09:54:07;;;;;;;973.45;908.58;;;;;;;19.70;50.89;101796.63;5035229;28;20025;-40
2021/11/05 09:56:33;;;;;;;959.47;895.97;;;;;;;19.66;51.05;101797.81;5049291;28;20115;-42
2021/11/05 09:58:59;;;;;;;975.20;910.00;;;;;;;19.67;51.26;101790.69;5036117;28;20029;-35
2021/11/05 10:01:25;;;;;;;963.63;899.83;;;;;;;19.66;51.40;101789.00;5035457;28;20041;-41
2021/11/05 10:03:52;;;;;;;970.78;905.67;;;;;;;19.64;51.46;101783.78;5049512;28;20109;-42
2021/11/05 10:06:19;;;;;;;970.42;906.95;;;;;;;19.67;51.08;101796.88;5049488;28;20104;-39
2021/11/05 10:08:51;;;;;;;971.70;907.25;;;;;;;19.66;50.75;101789.81;5037585;28;20036;-40
2021/11/05 10:11:26;;;;;;;969.20;904.38;;;;;;;19.67;51.26;101788.03;5041221;28;20036;-42
2021/11/05 10:13:53;;;;;;;959.60;895.85;;;;;;;19.62;51.34;101788.38;5038469;28;20069;-38
2021/11/05 10:16:20;;;;;;;971.92;907.78;;;;;;;19.66;51.19;101789.00;5046675;28;20056;-39
2021/11/05 10:19:01;;;;;;;976.42;911.47;;;;;;;19.64;50.79;101793.59;5049339;28;20040;-37
2021/11/05 10:21:28;;;;;;;961.80;898.50;;;;;;;19.63;51.02;101794.56;5046844;28;20060;-40
2021/11/05 10:24:07;;;;;;;955.75;893.15;;;;;;;19.64;50.62;101798.94;5045959;28;20060;-41
2021/11/05 10:26:35;;;;;;;941.63;880.00;;;;;;;19.60;50.45;101777.03;5034445;28;20459;-41
2021/11/05 10:29:02;;;;;;;959.92;896.83;;;;;;;19.67;50.57;101790.69;5044957;28;20029;-39
2021/11/05 10:31:30;;;;;;;962.40;898.03;;;;;;;19.64;50.87;101796.25;5047223;28;20021;-42
2021/11/05 10:33:57;;;;;;;963.35;898.85;;;;;;;19.60;50.97;101797.50;5035045;28;20463;-40
2021/11/05 10:36:24;;;;;;;990.25;924.53;;;;;;;19.58;50.96;101800.28;5035328;28;20029;-39
2021/11/05 10:38:53;;;;;;;979.30;914.33;;;;;;;19.53;50.79;101805.13;5035515;28;20021;-41
2021/11/05 10:41:21;;;;;;;968.92;905.45;;;;;;;19.49;51.14;101809.88;5046240;28;20021;-37
2021/11/05 10:43:52;;;;;;;956.22;892.72;;;;;;;19.48;50.95;101805.50;5038158;28;20026;-41
2021/11/05 10:46:29;;;;;;;973.72;908.78;;;;;;;19.46;51.35;101798.59;5050569;28;20025;-41
2021/11/05 10:48:58;;;;;;;966.30;903.33;;;;;;;19.47;50.85;101803.81;5054322;28;20031;-41